Time;durP1;ratioP1;P1;durP2;ratioP2;P2;SDS_P1;SDS_P2;PMS_P1;PMS_P2;Temp;Humidity;BMP_temperature;BMP_pressure;BME280_temperature;BME280_humidity;BME280_pressure;Samples;Min_cycle;Max_cycle;Signal;HPM_P1;HPM_P2
2022/06/02 00:00:52;;;;;;;;;2.75;2.00;;;;;;;;5024581;28;45446;-61
2022/06/02 00:03:47;;;;;;;;;2.50;2.50;;;;;;;;5026686;28;46438;-63
2022/06/02 00:06:19;;;;;;;;;3.25;2.25;;;;;;;;5017943;28;45505;-62
2022/06/02 00:08:47;;;;;;;;;2.00;2.00;;;;;;;;5025243;28;45490;-63
2022/06/02 00:11:21;;;;;;;;;3.25;2.75;;;;;;;;5038604;28;45530;-63
2022/06/02 00:13:47;;;;;;;;;1.75;1.75;;;;;;;;5029884;28;46575;-63
2022/06/02 00:16:15;;;;;;;;;2.00;2.00;;;;;;;;5029842;28;45671;-63
2022/06/02 00:19:01;;;;;;;;;2.75;1.75;;;;;;;;5035515;28;45518;-63
2022/06/02 00:21:35;;;;;;;;;1.50;1.50;;;;;;;;5026364;28;45588;-62
2022/06/02 00:24:06;;;;;;;;;3.00;2.00;;;;;;;;5034492;28;45673;-65
2022/06/02 00:26:40;;;;;;;;;2.00;2.00;;;;;;;;5038444;28;45251;-63
2022/06/02 00:29:27;;;;;;;;;3.00;3.00;;;;;;;;5038458;28;45166;-63
2022/06/02 00:32:02;;;;;;;;;3.75;3.75;;;;;;;;5019240;28;45542;-62
2022/06/02 00:34:40;;;;;;;;;3.00;3.00;;;;;;;;5038217;28;45644;-64
2022/06/02 00:37:25;;;;;;;;;3.00;3.00;;;;;;;;5041614;28;45552;-62
2022/06/02 00:39:51;;;;;;;;;2.25;2.25;;;;;;;;5047657;28;45664;-63
2022/06/02 00:42:25;;;;;;;;;2.75;2.00;;;;;;;;5037294;28;45422;-63
2022/06/02 00:44:50;;;;;;;;;3.25;3.25;;;;;;;;5035115;28;46712;-64
2022/06/02 00:47:29;;;;;;;;;3.00;3.00;;;;;;;;5020548;28;45691;-64
2022/06/02 00:50:13;;;;;;;;;3.50;3.00;;;;;;;;5032537;28;45443;-62
2022/06/02 00:52:47;;;;;;;;;3.50;3.50;;;;;;;;5013122;28;45908;-62
2022/06/02 00:58:09;;;;;;;;;3.75;3.75;;;;;;;;5040112;28;45322;-63
2022/06/02 01:00:45;;;;;;;;;3.00;3.00;;;;;;;;5038966;28;45188;-62
2022/06/02 01:03:15;;;;;;;;;3.00;3.00;;;;;;;;5037553;28;45486;-62
2022/06/02 01:05:59;;;;;;;;;6.50;4.00;;;;;;;;5038185;28;45752;-62
2022/06/02 01:08:27;;;;;;;;;3.50;3.00;;;;;;;;5037974;28;45402;-63
2022/06/02 01:11:13;;;;;;;;;4.00;3.00;;;;;;;;5035060;28;45671;-62
2022/06/02 01:13:55;;;;;;;;;4.25;3.75;;;;;;;;4939230;28;45372;-63
2022/06/02 01:16:23;;;;;;;;;3.50;3.50;;;;;;;;4966137;28;46472;-62
2022/06/02 01:18:55;;;;;;;;;1.50;1.50;;;;;;;;4954916;28;45432;-62
2022/06/02 01:21:39;;;;;;;;;5.50;5.50;;;;;;;;4956585;28;45412;-63
2022/06/02 01:24:10;;;;;;;;;4.75;3.25;;;;;;;;4956143;28;45569;-61
2022/06/02 01:26:35;;;;;;;;;4.50;4.50;;;;;;;;4958060;28;45356;-63
2022/06/02 01:29:15;;;;;;;;;5.50;4.00;;;;;;;;4964597;28;45637;-63
2022/06/02 01:31:43;;;;;;;;;4.25;4.25;;;;;;;;4954324;28;45458;-63
2022/06/02 01:34:25;;;;;;;;;5.00;4.00;;;;;;;;4966058;28;45607;-62
2022/06/02 01:36:59;;;;;;;;;4.25;4.00;;;;;;;;4958063;28;45987;-62
2022/06/02 01:39:43;;;;;;;;;5.00;5.00;;;;;;;;4943918;28;45561;-61
2022/06/02 01:42:14;;;;;;;;;3.75;3.75;;;;;;;;4950029;28;45597;-62
2022/06/02 01:44:42;;;;;;;;;4.00;4.00;;;;;;;;4953626;28;45357;-62
2022/06/02 01:47:16;;;;;;;;;5.25;5.25;;;;;;;;4961635;28;46699;-62
2022/06/02 01:49:47;;;;;;;;;4.00;4.00;;;;;;;;4941698;28;45775;-62
2022/06/02 01:52:18;;;;;;;;;4.00;4.00;;;;;;;;5035127;28;45465;-62
2022/06/02 01:54:50;;;;;;;;;5.00;3.25;;;;;;;;5034398;28;45270;-63
2022/06/02 01:57:18;;;;;;;;;4.50;4.50;;;;;;;;5033500;28;46819;-63
2022/06/02 02:00:01;;;;;;;;;4.00;4.00;;;;;;;;5033999;28;45516;-63
2022/06/02 02:02:32;;;;;;;;;5.75;4.00;;;;;;;;5035114;28;45543;-62
2022/06/02 02:05:07;;;;;;;;;7.25;5.75;;;;;;;;5035108;28;45440;-62
2022/06/02 02:07:46;;;;;;;;;4.50;4.25;;;;;;;;5016818;28;47621;-62
2022/06/02 02:10:14;;;;;;;;;4.00;4.00;;;;;;;;5035137;28;45447;-62
2022/06/02 02:12:54;;;;;;;;;4.50;4.50;;;;;;;;5035544;28;45485;-62
2022/06/02 02:15:46;;;;;;;;;3.50;3.50;;;;;;;;5017431;28;45371;-62
2022/06/02 02:18:18;;;;;;;;;4.50;4.50;;;;;;;;5030220;28;46552;-62
2022/06/02 02:20:55;;;;;;;;;4.00;3.50;;;;;;;;5034366;28;45625;-61
2022/06/02 02:23:28;;;;;;;;;5.00;5.00;;;;;;;;5033283;28;45480;-64
2022/06/02 02:26:03;;;;;;;;;4.00;4.00;;;;;;;;5032709;28;45401;-61
2022/06/02 02:28:34;;;;;;;;;4.25;4.25;;;;;;;;5034731;28;46170;-62
2022/06/02 02:31:08;;;;;;;;;6.50;5.00;;;;;;;;5034613;28;45606;-62
2022/06/02 02:33:44;;;;;;;;;5.75;4.00;;;;;;;;5033327;28;45402;-63
2022/06/02 02:36:10;;;;;;;;;4.00;4.00;;;;;;;;5033624;28;45493;-61
2022/06/02 02:38:48;;;;;;;;;4.25;4.25;;;;;;;;5033486;28;45332;-61
2022/06/02 02:41:24;;;;;;;;;4.00;4.00;;;;;;;;5033990;28;45356;-59
2022/06/02 02:43:54;;;;;;;;;6.75;6.75;;;;;;;;5016640;28;45450;-62
2022/06/02 02:46:38;;;;;;;;;4.50;4.00;;;;;;;;5034466;28;45418;-60
2022/06/02 02:49:09;;;;;;;;;6.00;6.00;;;;;;;;5033382;28;45939;-61
2022/06/02 02:51:40;;;;;;;;;6.00;6.00;;;;;;;;5031639;28;45348;-62
2022/06/02 02:54:24;;;;;;;;;7.00;6.00;;;;;;;;5033766;28;45240;-62
2022/06/02 02:56:49;;;;;;;;;4.75;4.75;;;;;;;;5033556;28;45445;-62
2022/06/02 02:59:15;;;;;;;;;5.25;3.25;;;;;;;;5033996;28;46437;-62
2022/06/02 03:01:47;;;;;;;;;4.25;4.25;;;;;;;;5033901;28;45351;-62
2022/06/02 03:04:13;;;;;;;;;4.00;4.00;;;;;;;;5014802;28;45390;-62
2022/06/02 03:06:40;;;;;;;;;5.25;4.25;;;;;;;;5019944;28;45354;-63
2022/06/02 03:09:12;;;;;;;;;7.00;5.50;;;;;;;;5019713;28;45487;-62
2022/06/02 03:11:40;;;;;;;;;3.00;2.00;;;;;;;;5033343;28;45405;-62
2022/06/02 03:14:29;;;;;;;;;5.00;4.00;;;;;;;;5034407;28;45414;-63
2022/06/02 03:17:22;;;;;;;;;5.25;4.00;;;;;;;;5018840;28;45444;-62
2022/06/02 03:19:50;;;;;;;;;5.25;5.25;;;;;;;;5015021;28;46118;-63
2022/06/02 03:22:26;;;;;;;;;6.75;6.00;;;;;;;;5033401;28;45436;-62
2022/06/02 03:25:03;;;;;;;;;6.00;5.25;;;;;;;;5033411;28;45503;-63
2022/06/02 03:27:28;;;;;;;;;5.00;5.00;;;;;;;;5020449;28;45541;-62
2022/06/02 03:30:05;;;;;;;;;5.00;4.50;;;;;;;;5032425;28;48916;-62
2022/06/02 03:32:31;;;;;;;;;6.50;5.50;;;;;;;;5018902;28;45524;-62
2022/06/02 03:35:06;;;;;;;;;6.75;6.75;;;;;;;;5032816;28;45584;-61
2022/06/02 03:37:31;;;;;;;;;7.25;6.00;;;;;;;;5033322;28;45636;-61
2022/06/02 03:40:01;;;;;;;;;4.00;4.00;;;;;;;;5035905;28;45752;-62
2022/06/02 03:42:32;;;;;;;;;6.00;5.00;;;;;;;;5035626;28;45315;-62
2022/06/02 03:44:57;;;;;;;;;6.00;6.00;;;;;;;;5036832;28;45455;-62
2022/06/02 03:47:22;;;;;;;;;5.00;5.00;;;;;;;;5037277;28;45323;-62
2022/06/02 03:49:56;;;;;;;;;4.75;4.75;;;;;;;;5037396;28;45781;-62
2022/06/02 03:52:31;;;;;;;;;6.25;6.25;;;;;;;;5020694;28;45521;-63
2022/06/02 03:55:11;;;;;;;;;4.00;4.00;;;;;;;;5036250;28;45388;-62
2022/06/02 03:57:59;;;;;;;;;7.50;7.50;;;;;;;;5036937;28;45525;-63
2022/06/02 04:00:26;;;;;;;;;6.75;5.75;;;;;;;;5023057;28;48078;-63
2022/06/02 04:02:56;;;;;;;;;5.25;5.25;;;;;;;;5036741;28;45586;-63
2022/06/02 04:05:21;;;;;;;;;6.50;6.50;;;;;;;;5035280;28;45461;-63
2022/06/02 04:07:52;;;;;;;;;5.00;5.00;;;;;;;;5036578;28;45501;-62
2022/06/02 04:10:23;;;;;;;;;7.00;6.00;;;;;;;;5037169;28;45677;-61
2022/06/02 04:16:03;;;;;;;;;7.25;7.25;;;;;;;;5035288;28;45484;-62
2022/06/02 04:18:40;;;;;;;;;5.75;5.75;;;;;;;;5036747;28;45392;-62
2022/06/02 04:21:17;;;;;;;;;5.50;5.50;;;;;;;;5035730;28;47194;-64
2022/06/02 04:23:52;;;;;;;;;5.75;5.75;;;;;;;;5035983;28;45563;-61
2022/06/02 04:26:36;;;;;;;;;7.50;7.00;;;;;;;;5036286;28;45483;-61
2022/06/02 04:29:07;;;;;;;;;8.25;7.00;;;;;;;;5018720;28;46892;-61
2022/06/02 04:31:51;;;;;;;;;4.25;4.25;;;;;;;;5036215;28;46310;-62
2022/06/02 04:34:25;;;;;;;;;6.00;6.00;;;;;;;;5032615;28;45505;-62
2022/06/02 04:37:09;;;;;;;;;7.75;7.75;;;;;;;;5033607;28;45458;-62
2022/06/02 04:39:43;;;;;;;;;5.00;5.00;;;;;;;;5034759;28;45288;-62
2022/06/02 04:42:28;;;;;;;;;8.00;8.00;;;;;;;;5036092;28;46581;-62
2022/06/02 04:45:00;;;;;;;;;6.25;6.25;;;;;;;;5024535;28;45424;-61
2022/06/02 04:47:25;;;;;;;;;7.25;7.00;;;;;;;;5034004;28;45388;-62
2022/06/02 04:49:58;;;;;;;;;7.00;7.00;;;;;;;;5035309;28;45513;-62
2022/06/02 04:52:41;;;;;;;;;7.00;7.00;;;;;;;;5019788;28;47540;-61
2022/06/02 04:55:24;;;;;;;;;5.50;5.00;;;;;;;;5034753;28;45550;-61
2022/06/02 04:57:52;;;;;;;;;5.00;5.00;;;;;;;;5035906;28;45542;-62
2022/06/02 05:00:29;;;;;;;;;6.00;6.00;;;;;;;;5036035;28;45545;-62
2022/06/02 05:03:02;;;;;;;;;8.25;7.25;;;;;;;;5033924;28;46177;-62
2022/06/02 05:05:40;;;;;;;;;9.00;6.00;;;;;;;;5033305;28;45396;-61
2022/06/02 05:08:08;;;;;;;;;7.00;7.00;;;;;;;;5028728;28;45349;-62
2022/06/02 05:10:41;;;;;;;;;7.25;7.25;;;;;;;;5036116;28;45568;-62
2022/06/02 05:13:06;;;;;;;;;4.75;4.75;;;;;;;;5036364;28;45496;-65
2022/06/02 05:15:38;;;;;;;;;7.00;7.00;;;;;;;;5035733;28;46904;-65
2022/06/02 05:18:22;;;;;;;;;9.75;9.75;;;;;;;;5033928;28;45494;-65
2022/06/02 05:20:53;;;;;;;;;8.25;8.25;;;;;;;;5032734;28;45333;-65
2022/06/02 05:23:37;;;;;;;;;6.50;6.50;;;;;;;;5033689;28;45965;-66
2022/06/02 05:26:21;;;;;;;;;7.00;7.00;;;;;;;;5035582;28;45478;-67
2022/06/02 05:29:05;;;;;;;;;9.00;8.00;;;;;;;;5020910;28;45385;-65
2022/06/02 05:31:49;;;;;;;;;7.50;6.75;;;;;;;;5018743;28;45515;-65
2022/06/02 05:34:23;;;;;;;;;7.75;7.75;;;;;;;;5044519;28;46550;-65
2022/06/02 05:37:03;;;;;;;;;6.50;6.50;;;;;;;;5035889;28;45347;-65
2022/06/02 05:39:38;;;;;;;;;10.25;9.25;;;;;;;;5035323;28;45325;-65
2022/06/02 05:42:22;;;;;;;;;9.75;8.75;;;;;;;;5034427;28;45369;-64
2022/06/02 05:45:05;;;;;;;;;10.50;9.00;;;;;;;;5021662;28;47424;-65
2022/06/02 05:47:48;;;;;;;;;6.50;6.50;;;;;;;;5035392;28;45381;-65
2022/06/02 05:50:19;;;;;;;;;9.00;6.25;;;;;;;;5035577;28;45385;-65
2022/06/02 05:52:59;;;;;;;;;10.50;9.00;;;;;;;;5020240;28;45233;-65
2022/06/02 05:55:29;;;;;;;;;7.25;7.25;;;;;;;;5035391;28;47382;-65
2022/06/02 05:58:04;;;;;;;;;9.00;9.00;;;;;;;;5034232;28;45400;-64
2022/06/02 06:00:45;;;;;;;;;7.00;7.00;;;;;;;;5035195;28;45766;-65
2022/06/02 06:03:23;;;;;;;;;8.50;7.50;;;;;;;;5033351;28;45408;-64
2022/06/02 06:05:58;;;;;;;;;9.50;8.00;;;;;;;;5034808;28;45404;-64
2022/06/02 06:08:32;;;;;;;;;8.25;8.25;;;;;;;;5034953;28;45331;-64
2022/06/02 06:11:16;;;;;;;;;9.00;9.00;;;;;;;;5035186;28;45482;-63
2022/06/02 06:13:44;;;;;;;;;8.00;8.00;;;;;;;;5019344;28;45446;-63
2022/06/02 06:16:12;;;;;;;;;7.75;7.75;;;;;;;;5031459;28;45369;-63
2022/06/02 06:18:46;;;;;;;;;9.75;9.75;;;;;;;;5035007;28;45351;-63
2022/06/02 06:21:31;;;;;;;;;8.25;7.00;;;;;;;;5034854;28;45720;-63
2022/06/02 06:24:06;;;;;;;;;11.00;10.25;;;;;;;;5020859;28;45435;-63
2022/06/02 06:26:45;;;;;;;;;7.00;7.00;;;;;;;;5034604;28;46252;-63
2022/06/02 06:29:12;;;;;;;;;10.00;10.00;;;;;;;;5034868;28;45417;-63
2022/06/02 06:31:56;;;;;;;;;10.75;9.50;;;;;;;;5034558;28;45401;-63
2022/06/02 06:34:40;;;;;;;;;9.00;8.25;;;;;;;;5032354;28;45434;-63
2022/06/02 06:37:17;;;;;;;;;15.00;9.25;;;;;;;;5034856;28;45844;-63
2022/06/02 06:39:56;;;;;;;;;9.25;9.00;;;;;;;;5034730;28;45454;-64
2022/06/02 06:42:40;;;;;;;;;11.00;11.00;;;;;;;;5033264;28;45382;-64
2022/06/02 06:45:25;;;;;;;;;9.50;9.50;;;;;;;;5034407;28;45430;-64
2022/06/02 06:48:14;;;;;;;;;12.25;10.50;;;;;;;;5033641;28;45516;-64
2022/06/02 06:51:03;;;;;;;;;10.00;10.00;;;;;;;;5026423;28;45353;-64
2022/06/02 06:53:39;;;;;;;;;10.25;10.25;;;;;;;;4964333;28;45387;-63
2022/06/02 06:56:21;;;;;;;;;12.75;11.75;;;;;;;;4949508;28;45510;-64
2022/06/02 06:59:04;;;;;;;;;11.00;10.75;;;;;;;;4968182;28;45676;-66
2022/06/02 07:01:32;;;;;;;;;14.25;11.50;;;;;;;;4969230;28;45485;-64
2022/06/02 07:04:16;;;;;;;;;15.00;12.50;;;;;;;;4938704;28;45361;-64
2022/06/02 07:06:59;;;;;;;;;13.00;12.00;;;;;;;;4965313;28;45237;-64
2022/06/02 07:09:43;;;;;;;;;11.75;11.00;;;;;;;;4964191;28;45600;-64
2022/06/02 07:15:34;;;;;;;;;12.00;12.00;;;;;;;;4965815;28;45541;-64
2022/06/02 07:18:18;;;;;;;;;11.00;11.00;;;;;;;;4967485;28;45574;-64
2022/06/02 07:20:48;;;;;;;;;12.75;12.75;;;;;;;;4966507;28;46548;-64
2022/06/02 07:23:18;;;;;;;;;12.00;12.00;;;;;;;;4967552;28;45587;-63
2022/06/02 07:26:03;;;;;;;;;11.50;10.50;;;;;;;;4971769;28;45351;-63
2022/06/02 07:28:55;;;;;;;;;13.00;13.00;;;;;;;;4971929;28;45526;-64
2022/06/02 07:31:20;;;;;;;;;13.00;11.50;;;;;;;;5009565;28;46584;-64
2022/06/02 07:33:51;;;;;;;;;9.75;8.25;;;;;;;;5024241;28;45478;-65
2022/06/02 07:36:22;;;;;;;;;11.75;11.50;;;;;;;;5037314;28;45487;-64
2022/06/02 07:39:06;;;;;;;;;13.75;11.25;;;;;;;;5036624;28;45380;-64
2022/06/02 07:41:48;;;;;;;;;12.00;11.75;;;;;;;;5022530;28;47731;-64
2022/06/02 07:44:26;;;;;;;;;12.50;12.00;;;;;;;;5037265;28;45300;-64
2022/06/02 07:46:57;;;;;;;;;9.75;9.75;;;;;;;;5005063;28;45449;-64
2022/06/02 07:49:41;;;;;;;;;9.75;9.75;;;;;;;;5037064;28;45545;-65
2022/06/02 07:52:22;;;;;;;;;8.75;8.75;;;;;;;;5037538;28;45691;-65
2022/06/02 07:54:47;;;;;;;;;12.50;11.50;;;;;;;;5036887;28;45317;-64
2022/06/02 07:57:12;;;;;;;;;7.00;7.00;;;;;;;;5036853;28;45287;-64
2022/06/02 07:59:46;;;;;;;;;8.25;8.25;;;;;;;;5037213;28;45396;-64
2022/06/02 08:02:12;;;;;;;;;8.00;8.00;;;;;;;;5036888;28;46355;-64
2022/06/02 08:04:42;;;;;;;;;9.00;8.00;;;;;;;;5036869;28;45540;-63
2022/06/02 08:07:13;;;;;;;;;10.00;8.25;;;;;;;;5037988;28;45442;-64
2022/06/02 08:09:57;;;;;;;;;8.75;7.75;;;;;;;;5036883;28;45327;-64
2022/06/02 08:12:48;;;;;;;;;9.25;8.00;;;;;;;;5036514;28;46237;-63
2022/06/02 08:15:26;;;;;;;;;6.00;6.00;;;;;;;;5023028;28;45545;-63
2022/06/02 08:18:03;;;;;;;;;8.25;6.25;;;;;;;;5023121;28;45347;-63
2022/06/02 08:20:28;;;;;;;;;5.50;5.50;;;;;;;;5021480;28;45501;-63
2022/06/02 08:23:04;;;;;;;;;6.75;6.00;;;;;;;;5033923;28;47341;-64
2022/06/02 08:25:38;;;;;;;;;5.50;5.50;;;;;;;;5034026;28;45525;-65
2022/06/02 08:28:32;;;;;;;;;4.50;4.50;;;;;;;;5036807;28;45367;-63
2022/06/02 08:31:05;;;;;;;;;5.75;5.75;;;;;;;;4955622;28;45484;-64
2022/06/02 08:33:30;;;;;;;;;6.25;6.25;;;;;;;;4960832;28;46465;-64
2022/06/02 08:36:02;;;;;;;;;4.25;4.25;;;;;;;;4960956;28;45254;-65
2022/06/02 08:38:28;;;;;;;;;7.25;6.75;;;;;;;;4961083;28;45650;-64
2022/06/02 08:43:53;;;;;;;;;6.75;5.75;;;;;;;;4957609;28;45691;-64
2022/06/02 08:46:18;;;;;;;;;5.50;4.50;;;;;;;;4958659;28;45520;-65
2022/06/02 08:48:43;;;;;;;;;5.25;5.25;;;;;;;;4960964;28;45352;-64
2022/06/02 08:51:11;;;;;;;;;4.50;4.50;;;;;;;;4960697;28;45611;-65
2022/06/02 08:53:55;;;;;;;;;9.25;7.00;;;;;;;;4942389;28;46270;-64
2022/06/02 08:56:20;;;;;;;;;4.25;3.00;;;;;;;;4959200;28;45405;-65
2022/06/02 08:58:54;;;;;;;;;4.00;4.00;;;;;;;;4957973;28;45337;-65
2022/06/02 09:01:38;;;;;;;;;6.50;5.25;;;;;;;;4971397;28;45401;-66
2022/06/02 09:04:18;;;;;;;;;5.00;5.00;;;;;;;;4961367;28;46710;-65
2022/06/02 09:06:57;;;;;;;;;4.00;4.00;;;;;;;;4983967;28;46115;-64
2022/06/02 09:09:28;;;;;;;;;4.00;4.00;;;;;;;;5036100;28;45416;-64
2022/06/02 09:12:06;;;;;;;;;4.00;4.00;;;;;;;;5036002;28;45668;-65
2022/06/02 09:14:57;;;;;;;;;4.75;4.00;;;;;;;;5035577;28;45896;-64
2022/06/02 09:17:26;;;;;;;;;4.00;4.00;;;;;;;;5034175;28;45585;-65
2022/06/02 09:20:03;;;;;;;;;4.00;4.00;;;;;;;;5032755;28;45591;-65
2022/06/02 09:22:32;;;;;;;;;3.00;3.00;;;;;;;;5035719;28;45394;-65
2022/06/02 09:24:57;;;;;;;;;5.00;5.00;;;;;;;;5036096;28;46614;-65
2022/06/02 09:27:23;;;;;;;;;5.00;4.25;;;;;;;;5034076;28;45472;-65
2022/06/02 09:29:50;;;;;;;;;3.00;3.00;;;;;;;;5035603;28;45751;-65
2022/06/02 09:32:33;;;;;;;;;2.50;2.50;;;;;;;;5035393;28;47797;-65
2022/06/02 09:34:58;;;;;;;;;2.00;2.00;;;;;;;;5021882;28;46327;-65
2022/06/02 09:37:23;;;;;;;;;2.00;2.00;;;;;;;;5034602;28;45418;-66
2022/06/02 09:39:49;;;;;;;;;3.25;2.50;;;;;;;;5036277;28;45358;-65
2022/06/02 09:42:17;;;;;;;;;3.75;3.75;;;;;;;;5035479;28;45530;-65
2022/06/02 09:44:45;;;;;;;;;2.75;2.75;;;;;;;;5035252;28;46722;-66
2022/06/02 09:47:19;;;;;;;;;1.75;1.75;;;;;;;;5034969;28;45481;-66
2022/06/02 09:49:59;;;;;;;;;3.25;2.75;;;;;;;;5019934;28;45307;-65
2022/06/02 09:52:27;;;;;;;;;2.75;2.75;;;;;;;;5035510;28;45264;-65
2022/06/02 09:55:11;;;;;;;;;2.50;2.50;;;;;;;;5033533;28;45807;-65
2022/06/02 10:00:26;;;;;;;;;3.00;2.00;;;;;;;;5035370;28;45524;-66
2022/06/02 10:02:51;;;;;;;;;2.00;2.00;;;;;;;;5035115;28;45320;-65
2022/06/02 10:05:20;;;;;;;;;2.25;1.75;;;;;;;;5034863;28;46736;-65
2022/06/02 10:07:49;;;;;;;;;2.25;2.25;;;;;;;;5034873;28;45421;-66
2022/06/02 10:10:34;;;;;;;;;4.50;4.25;;;;;;;;5035394;28;45418;-64
2022/06/02 10:13:03;;;;;;;;;3.00;2.00;;;;;;;;5034266;28;45387;-66
2022/06/02 10:15:40;;;;;;;;;4.75;3.00;;;;;;;;5034678;28;46846;-66
2022/06/02 10:18:12;;;;;;;;;2.50;2.00;;;;;;;;5032404;28;45457;-66
2022/06/02 10:21:00;;;;;;;;;2.00;2.00;;;;;;;;5033702;28;45296;-66
2022/06/02 10:23:31;;;;;;;;;4.00;3.00;;;;;;;;5018923;28;45473;-66
2022/06/02 10:26:16;;;;;;;;;3.00;3.00;;;;;;;;5034648;28;46047;-65
2022/06/02 10:29:01;;;;;;;;;2.00;2.00;;;;;;;;5005000;28;45244;-65
2022/06/02 10:31:45;;;;;;;;;2.00;2.00;;;;;;;;5032915;28;45349;-65
2022/06/02 10:34:30;;;;;;;;;2.00;2.00;;;;;;;;5031364;28;45218;-66
2022/06/02 10:37:00;;;;;;;;;4.50;2.00;;;;;;;;5030899;28;46830;-65
2022/06/02 10:39:44;;;;;;;;;3.00;3.00;;;;;;;;5026122;28;45338;-64
2022/06/02 10:42:11;;;;;;;;;2.50;1.75;;;;;;;;5032028;28;45391;-64
2022/06/02 10:44:36;;;;;;;;;2.50;2.00;;;;;;;;5035979;28;46128;-65
2022/06/02 10:47:14;;;;;;;;;2.25;2.25;;;;;;;;5033981;28;45532;-64
2022/06/02 10:49:42;;;;;;;;;4.50;2.50;;;;;;;;5034679;28;45354;-64
2022/06/02 10:52:19;;;;;;;;;2.00;2.00;;;;;;;;5043168;28;45766;-66
2022/06/02 10:54:56;;;;;;;;;2.00;1.50;;;;;;;;5040598;28;45360;-65
2022/06/02 10:57:34;;;;;;;;;2.00;2.00;;;;;;;;5038865;28;46320;-65
2022/06/02 10:59:59;;;;;;;;;2.00;2.00;;;;;;;;5039248;28;45441;-65
2022/06/02 11:02:30;;;;;;;;;3.00;1.00;;;;;;;;5024248;28;45444;-65
2022/06/02 11:05:12;;;;;;;;;2.00;2.00;;;;;;;;5036645;28;45613;-64
2022/06/02 11:07:41;;;;;;;;;1.25;1.25;;;;;;;;5035555;28;45643;-66
2022/06/02 11:10:18;;;;;;;;;2.50;2.50;;;;;;;;5041935;28;45605;-65
2022/06/02 11:13:03;;;;;;;;;3.00;3.00;;;;;;;;5040158;28;45412;-65
2022/06/02 11:15:42;;;;;;;;;2.00;2.00;;;;;;;;5038816;28;45551;-65
2022/06/02 11:18:26;;;;;;;;;2.00;2.00;;;;;;;;5038735;28;45947;-65
2022/06/02 11:21:10;;;;;;;;;4.00;3.00;;;;;;;;5038782;28;45319;-65
2022/06/02 11:23:51;;;;;;;;;3.00;3.00;;;;;;;;5038928;28;45318;-65
2022/06/02 11:26:22;;;;;;;;;2.00;2.00;;;;;;;;5038911;28;45374;-65
2022/06/02 11:28:54;;;;;;;;;4.00;3.00;;;;;;;;5035133;28;45957;-64
2022/06/02 11:31:22;;;;;;;;;3.75;3.75;;;;;;;;5039385;28;45334;-65
2022/06/02 11:34:06;;;;;;;;;3.50;3.00;;;;;;;;5041313;28;46349;-65
2022/06/02 11:36:43;;;;;;;;;3.00;3.00;;;;;;;;5037955;28;45469;-65
2022/06/02 11:39:27;;;;;;;;;4.25;3.75;;;;;;;;5023255;28;47660;-64
2022/06/02 11:42:11;;;;;;;;;3.00;3.00;;;;;;;;5038354;28;45394;-64
2022/06/02 11:44:54;;;;;;;;;3.50;3.50;;;;;;;;5038646;28;45454;-64
2022/06/02 11:47:38;;;;;;;;;4.00;4.00;;;;;;;;5037786;28;45617;-63
2022/06/02 11:50:03;;;;;;;;;4.00;4.00;;;;;;;;5036605;28;47917;-65
2022/06/02 11:52:46;;;;;;;;;2.75;2.75;;;;;;;;5037779;28;45457;-66
2022/06/02 11:55:19;;;;;;;;;4.00;3.00;;;;;;;;5024004;28;45390;-65
2022/06/02 11:57:47;;;;;;;;;4.75;4.75;;;;;;;;5039491;28;45335;-65
2022/06/02 12:00:25;;;;;;;;;1.25;1.25;;;;;;;;5037609;28;46517;-64
2022/06/02 12:03:05;;;;;;;;;4.25;4.25;;;;;;;;5038259;28;45513;-65
2022/06/02 12:05:31;;;;;;;;;3.00;3.00;;;;;;;;5038360;28;45463;-65
2022/06/02 12:08:26;;;;;;;;;4.75;4.00;;;;;;;;5018729;28;45778;-65
2022/06/02 12:11:08;;;;;;;;;3.75;3.75;;;;;;;;5020220;28;45626;-65
2022/06/02 12:13:52;;;;;;;;;3.00;3.00;;;;;;;;5017995;28;45529;-64
2022/06/02 12:16:38;;;;;;;;;3.75;3.75;;;;;;;;5031434;28;45358;-65
2022/06/02 12:19:15;;;;;;;;;4.00;4.00;;;;;;;;5034779;28;45444;-65
2022/06/02 12:21:59;;;;;;;;;4.00;4.00;;;;;;;;5039860;28;46633;-65
2022/06/02 12:24:38;;;;;;;;;4.00;4.00;;;;;;;;5043123;28;45596;-65
2022/06/02 12:27:03;;;;;;;;;2.00;2.00;;;;;;;;5044373;28;45703;-65
2022/06/02 12:29:43;;;;;;;;;1.00;1.00;;;;;;;;5038983;28;45404;-65
2022/06/02 12:32:18;;;;;;;;;3.00;3.00;;;;;;;;5034835;28;46113;-64
2022/06/02 12:34:46;;;;;;;;;2.00;2.00;;;;;;;;5001176;28;45280;-65
2022/06/02 12:37:15;;;;;;;;;1.25;1.25;;;;;;;;5049365;28;45750;-65
2022/06/02 12:39:43;;;;;;;;;3.25;3.25;;;;;;;;5035345;28;45394;-64
2022/06/02 12:42:27;;;;;;;;;1.00;1.00;;;;;;;;5036114;28;46714;-65
2022/06/02 12:45:11;;;;;;;;;4.50;3.50;;;;;;;;5022522;28;46136;-64
2022/06/02 12:47:45;;;;;;;;;2.00;1.50;;;;;;;;5036394;28;45227;-65
2022/06/02 12:50:29;;;;;;;;;3.00;2.75;;;;;;;;5036449;28;45343;-66
2022/06/02 12:53:12;;;;;;;;;2.75;2.50;;;;;;;;5003758;28;47827;-64
2022/06/02 12:55:44;;;;;;;;;2.00;2.00;;;;;;;;5036414;28;45346;-65
2022/06/02 12:58:28;;;;;;;;;2.75;2.00;;;;;;;;5036827;28;45386;-65
2022/06/02 13:01:08;;;;;;;;;2.00;2.00;;;;;;;;5036637;28;45589;-64
2022/06/02 13:03:52;;;;;;;;;2.50;2.50;;;;;;;;5021501;28;47630;-63
2022/06/02 13:06:38;;;;;;;;;2.25;2.25;;;;;;;;5022397;28;46061;-66
2022/06/02 13:09:28;;;;;;;;;2.25;2.25;;;;;;;;5035291;28;45506;-66
2022/06/02 13:12:13;;;;;;;;;2.00;2.00;;;;;;;;5034642;28;45532;-65
2022/06/02 13:14:56;;;;;;;;;3.00;3.00;;;;;;;;5035668;28;46488;-65
2022/06/02 13:17:24;;;;;;;;;3.00;3.00;;;;;;;;5035523;28;45368;-65
2022/06/02 13:19:58;;;;;;;;;2.00;2.00;;;;;;;;5035862;28;45635;-64
2022/06/02 13:22:30;;;;;;;;;3.00;3.00;;;;;;;;5035692;28;45390;-65
2022/06/02 13:25:15;;;;;;;;;3.25;3.25;;;;;;;;5034367;28;45759;-64
2022/06/02 13:27:59;;;;;;;;;2.50;2.50;;;;;;;;5037707;28;46531;-64
2022/06/02 13:30:42;;;;;;;;;2.00;2.00;;;;;;;;5035651;28;45507;-64
2022/06/02 13:33:10;;;;;;;;;2.00;2.00;;;;;;;;5035131;28;45471;-65
2022/06/02 13:35:50;;;;;;;;;3.50;2.50;;;;;;;;5035423;28;46264;-65
2022/06/02 13:38:21;;;;;;;;;2.00;2.00;;;;;;;;5035327;28;45493;-64
2022/06/02 13:40:55;;;;;;;;;4.75;3.00;;;;;;;;5020419;28;45476;-64
2022/06/02 13:43:39;;;;;;;;;2.75;2.75;;;;;;;;5035334;28;45438;-64
2022/06/02 13:46:16;;;;;;;;;3.50;2.75;;;;;;;;5034681;28;45638;-65
2022/06/02 13:48:44;;;;;;;;;2.25;2.25;;;;;;;;5016966;28;45398;-65
2022/06/02 13:51:16;;;;;;;;;3.00;3.00;;;;;;;;5035141;28;47845;-65
2022/06/02 13:57:30;;;;;;;;;3.50;3.25;;;;;;;;5033070;28;45574;-64
2022/06/02 13:59:55;;;;;;;;;3.00;2.00;;;;;;;;5034698;28;45398;-65
2022/06/02 14:02:21;;;;;;;;;0.50;0.50;;;;;;;;4965026;28;45484;-65
2022/06/02 14:05:04;;;;;;;;;1.00;1.00;;;;;;;;4953061;28;45512;-64
2022/06/02 14:07:48;;;;;;;;;1.25;1.25;;;;;;;;4953355;28;47690;-65
2022/06/02 14:10:40;;;;;;;;;2.00;2.00;;;;;;;;4966056;28;45424;-65
2022/06/02 14:13:11;;;;;;;;;2.25;2.25;;;;;;;;4958765;28;45387;-64
2022/06/02 14:15:59;;;;;;;;;2.75;2.00;;;;;;;;4958126;28;45628;-64
2022/06/02 14:18:44;;;;;;;;;2.00;2.00;;;;;;;;4957820;28;46480;-66
2022/06/02 14:21:25;;;;;;;;;1.50;1.50;;;;;;;;4957827;28;45527;-64
2022/06/02 14:24:08;;;;;;;;;1.75;1.75;;;;;;;;4940312;28;45608;-65
2022/06/02 14:26:33;;;;;;;;;1.25;1.25;;;;;;;;4955674;28;45392;-64
2022/06/02 14:29:08;;;;;;;;;2.25;2.25;;;;;;;;4955260;28;46620;-64
2022/06/02 14:31:49;;;;;;;;;2.00;2.00;;;;;;;;4954556;28;45486;-65
2022/06/02 14:34:28;;;;;;;;;2.00;2.00;;;;;;;;4957457;28;45604;-65
2022/06/02 14:37:05;;;;;;;;;2.00;2.00;;;;;;;;5015377;28;45367;-65
2022/06/02 14:39:36;;;;;;;;;3.00;3.00;;;;;;;;5034572;28;46405;-66
2022/06/02 14:42:10;;;;;;;;;2.00;2.00;;;;;;;;5034388;28;45357;-65
2022/06/02 14:44:41;;;;;;;;;2.25;2.25;;;;;;;;5034404;28;45445;-64
2022/06/02 14:47:12;;;;;;;;;3.50;3.50;;;;;;;;5034164;28;45504;-64
2022/06/02 14:49:46;;;;;;;;;2.25;2.25;;;;;;;;5034486;28;46120;-65
2022/06/02 14:52:32;;;;;;;;;4.25;2.50;;;;;;;;5030984;28;45484;-64
2022/06/02 14:55:09;;;;;;;;;4.00;4.00;;;;;;;;5033298;28;45559;-66
2022/06/02 14:57:40;;;;;;;;;2.50;2.50;;;;;;;;5034525;28;45323;-64
2022/06/02 15:00:16;;;;;;;;;2.00;2.00;;;;;;;;5034008;28;45702;-65
2022/06/02 15:02:53;;;;;;;;;2.50;2.50;;;;;;;;5034161;28;45458;-64
2022/06/02 15:05:32;;;;;;;;;3.00;3.00;;;;;;;;5034476;28;45513;-64
2022/06/02 15:07:57;;;;;;;;;2.00;2.00;;;;;;;;5034527;28;45386;-64
2022/06/02 15:10:29;;;;;;;;;2.75;2.75;;;;;;;;5019032;28;45457;-64
2022/06/02 15:13:08;;;;;;;;;2.00;1.50;;;;;;;;5032688;28;45314;-65
2022/06/02 15:15:49;;;;;;;;;2.00;2.00;;;;;;;;5034128;28;45616;-64
2022/06/02 15:18:21;;;;;;;;;4.00;2.75;;;;;;;;5034112;28;45387;-66
2022/06/02 15:20:55;;;;;;;;;2.50;2.50;;;;;;;;5033942;28;45633;-65
2022/06/02 15:23:55;;;;;;;;;3.00;3.00;;;;;;;;5033916;28;45728;-64
2022/06/02 15:26:44;;;;;;;;;2.00;2.00;;;;;;;;4964239;28;45468;-64
2022/06/02 15:29:16;;;;;;;;;2.75;2.75;;;;;;;;4965364;28;45453;-65
2022/06/02 15:32:00;;;;;;;;;2.25;2.25;;;;;;;;4968471;28;45719;-64
2022/06/02 15:34:31;;;;;;;;;3.50;3.50;;;;;;;;4968805;28;45474;-64
2022/06/02 15:37:14;;;;;;;;;4.00;3.00;;;;;;;;4958869;28;45561;-65
2022/06/02 15:39:58;;;;;;;;;4.25;3.00;;;;;;;;4960749;28;45334;-65
2022/06/02 15:42:29;;;;;;;;;2.00;2.00;;;;;;;;4960491;28;46797;-64
2022/06/02 15:45:13;;;;;;;;;2.00;2.00;;;;;;;;4960495;28;45436;-65
2022/06/02 15:47:41;;;;;;;;;2.00;2.00;;;;;;;;4956866;28;45439;-66
2022/06/02 15:50:19;;;;;;;;;3.00;3.00;;;;;;;;4958980;28;45420;-66